createdAt,value
2019-02-09T00:00:37.453Z,5.37
2019-02-09T00:03:04.639Z,6.57
2019-02-09T00:05:31.807Z,5.77
2019-02-09T00:07:59.077Z,5.67
2019-02-09T00:10:26.327Z,5.90
2019-02-09T00:12:53.505Z,4.97
2019-02-09T00:15:20.693Z,4.87
2019-02-09T00:17:47.881Z,4.77
2019-02-09T00:20:15.795Z,4.77
2019-02-09T00:22:42.998Z,5.20
2019-02-09T00:25:14.749Z,4.50
2019-02-09T00:27:41.918Z,4.77
2019-02-09T00:30:12.790Z,5.20
2019-02-09T00:32:39.983Z,4.43
2019-02-09T00:35:08.781Z,5.10
2019-02-09T00:37:35.969Z,4.10
2019-02-09T00:40:04.311Z,4.03
2019-02-09T00:42:31.512Z,3.83
2019-02-09T00:44:58.678Z,4.43
2019-02-09T00:47:25.846Z,4.23
2019-02-09T00:49:53.025Z,4.57
2019-02-09T00:52:20.196Z,4.27
2019-02-09T00:54:47.372Z,3.80
2019-02-09T00:57:14.542Z,3.70
2019-02-09T00:59:41.718Z,4.03
2019-02-09T01:02:08.914Z,3.97
2019-02-09T01:04:36.093Z,3.57
2019-02-09T01:07:03.290Z,4.03
2019-02-09T01:09:30.526Z,3.93
2019-02-09T01:11:57.736Z,4.10
2019-02-09T01:14:25.052Z,4.20
2019-02-09T01:16:52.248Z,4.20
2019-02-09T01:19:19.470Z,4.47
2019-02-09T01:21:46.630Z,4.07
2019-02-09T01:24:13.802Z,4.73
2019-02-09T01:26:40.996Z,4.07
2019-02-09T01:29:08.258Z,3.77
2019-02-09T01:31:35.436Z,4.17
2019-02-09T01:34:02.597Z,4.40
2019-02-09T01:36:29.794Z,3.97
2019-02-09T01:38:56.965Z,4.37
2019-02-09T01:41:24.158Z,4.00
2019-02-09T01:43:51.401Z,3.87
2019-02-09T01:46:18.591Z,4.43
2019-02-09T01:48:45.778Z,3.07
2019-02-09T01:51:12.934Z,3.80
2019-02-09T01:53:40.131Z,4.10
2019-02-09T01:56:07.359Z,4.23
2019-02-09T01:58:34.527Z,4.00
2019-02-09T02:01:01.728Z,4.13
2019-02-09T02:03:28.901Z,3.77
2019-02-09T02:05:56.101Z,4.23
2019-02-09T02:08:23.274Z,3.23
2019-02-09T02:10:50.455Z,3.50
2019-02-09T02:13:17.641Z,3.87
2019-02-09T02:15:44.813Z,2.87
2019-02-09T02:18:11.975Z,3.80
2019-02-09T02:20:39.173Z,5.07
2019-02-09T02:23:06.353Z,4.33
2019-02-09T02:25:34.388Z,4.20
2019-02-09T02:28:01.550Z,4.67
2019-02-09T02:30:30.381Z,4.67
2019-02-09T02:32:57.557Z,4.20
2019-02-09T02:35:24.735Z,4.47
2019-02-09T02:37:51.914Z,4.00
2019-02-09T02:40:22.350Z,4.53
2019-02-09T02:42:49.521Z,3.87
2019-02-09T02:45:21.310Z,4.50
2019-02-09T02:47:48.503Z,3.47
2019-02-09T02:50:17.034Z,3.10
2019-02-09T02:52:44.208Z,2.83
2019-02-09T02:55:16.006Z,3.33
2019-02-09T02:57:43.187Z,3.60
2019-02-09T03:00:11.814Z,3.07
2019-02-09T03:02:39.038Z,3.00
2019-02-09T03:05:07.843Z,3.10
2019-02-09T03:07:35.002Z,3.20
2019-02-09T03:10:02.187Z,3.33
2019-02-09T03:12:29.349Z,2.83
2019-02-09T03:14:56.515Z,4.20
2019-02-09T03:17:23.695Z,2.70
2019-02-09T03:19:50.868Z,3.00
2019-02-09T03:22:18.026Z,2.80
2019-02-09T03:24:45.192Z,3.20
2019-02-09T03:27:12.372Z,2.73
2019-02-09T03:29:39.543Z,3.43
2019-02-09T03:32:06.816Z,3.00
2019-02-09T03:34:33.992Z,2.90
2019-02-09T03:37:01.170Z,2.57
2019-02-09T03:39:28.338Z,3.13
2019-02-09T03:41:55.501Z,3.03
2019-02-09T03:44:22.690Z,2.70
2019-02-09T03:46:49.851Z,3.13
2019-02-09T03:49:17.027Z,2.50
2019-02-09T03:51:44.205Z,3.17
2019-02-09T03:54:11.370Z,2.47
2019-02-09T03:56:38.569Z,2.63
2019-02-09T03:59:05.807Z,2.37
2019-02-09T04:01:32.991Z,2.53
2019-02-09T04:04:00.179Z,2.50
2019-02-09T04:06:27.338Z,2.40
2019-02-09T04:08:54.521Z,2.10
2019-02-09T04:11:21.711Z,2.13
2019-02-09T04:13:48.906Z,2.40
2019-02-09T04:16:16.152Z,2.23
2019-02-09T04:18:43.313Z,2.43
2019-02-09T04:21:10.498Z,2.87
2019-02-09T04:23:37.662Z,2.17
2019-02-09T04:26:04.841Z,2.00
2019-02-09T04:28:32.088Z,2.10
2019-02-09T04:31:06.238Z,1.73
2019-02-09T04:33:28.195Z,1.67
2019-02-09T04:35:55.363Z,1.63
2019-02-09T04:38:22.543Z,1.93
2019-02-09T04:40:49.723Z,1.80
2019-02-09T04:43:16.915Z,1.83
2019-02-09T04:45:44.100Z,2.00
2019-02-09T04:48:11.293Z,1.90
2019-02-09T04:50:38.450Z,1.70
2019-02-09T04:53:05.625Z,1.53
2019-02-09T04:55:32.838Z,1.77
2019-02-09T04:58:00.039Z,2.00
2019-02-09T05:00:31.384Z,2.40
2019-02-09T05:02:58.550Z,2.43
2019-02-09T05:05:25.816Z,2.40
2019-02-09T05:07:52.986Z,1.63
2019-02-09T05:10:21.253Z,1.50
2019-02-09T05:12:48.485Z,1.60
2019-02-09T05:15:16.929Z,1.60
2019-02-09T05:17:44.177Z,1.83
2019-02-09T05:20:12.980Z,1.80
2019-02-09T05:22:40.138Z,1.50
2019-02-09T05:25:08.383Z,1.83
2019-02-09T05:27:35.564Z,1.77
2019-02-09T05:30:02.765Z,1.67
2019-02-09T05:32:29.998Z,1.80
2019-02-09T05:34:59.213Z,1.50
2019-02-09T05:37:26.421Z,1.83
2019-02-09T05:39:53.663Z,1.70
2019-02-09T05:42:20.903Z,1.80
2019-02-09T05:44:48.099Z,1.90
2019-02-09T05:47:15.298Z,2.33
2019-02-09T05:49:42.529Z,2.03
2019-02-09T05:52:09.746Z,1.67
2019-02-09T05:54:36.922Z,1.50
2019-02-09T05:57:04.122Z,1.80
2019-02-09T05:59:31.290Z,1.83
2019-02-09T06:01:58.590Z,1.93
2019-02-09T06:04:25.755Z,1.53
2019-02-09T06:06:52.935Z,1.80
2019-02-09T06:09:20.141Z,1.90
2019-02-09T06:11:47.322Z,1.80
2019-02-09T06:14:14.503Z,1.80
2019-02-09T06:16:41.695Z,1.63
2019-02-09T06:19:08.869Z,1.50
2019-02-09T06:21:36.861Z,2.03
2019-02-09T06:24:04.139Z,1.93
2019-02-09T06:26:31.378Z,2.00
2019-02-09T06:28:58.582Z,1.63
2019-02-09T06:31:25.834Z,1.80
2019-02-09T06:33:53.019Z,2.13
2019-02-09T06:36:20.457Z,2.50
2019-02-09T06:38:47.643Z,1.83
2019-02-09T06:41:14.894Z,1.90
2019-02-09T06:43:42.083Z,2.10
2019-02-09T06:46:09.254Z,2.20
2019-02-09T06:48:36.450Z,2.87
2019-02-09T06:51:03.621Z,2.10
2019-02-09T06:53:30.785Z,2.70
2019-02-09T06:55:57.985Z,2.10
2019-02-09T06:58:25.197Z,2.13
2019-02-09T07:00:52.358Z,2.07
2019-02-09T07:03:19.543Z,1.90
2019-02-09T07:05:46.734Z,2.00
2019-02-09T07:08:13.891Z,2.20
2019-02-09T07:10:41.075Z,2.50
2019-02-09T07:13:08.262Z,2.20
2019-02-09T07:15:36.612Z,2.60
2019-02-09T07:18:04.857Z,2.23
2019-02-09T07:20:32.051Z,3.07
2019-02-09T07:22:59.221Z,2.83
2019-02-09T07:25:26.798Z,2.53
2019-02-09T07:27:53.986Z,2.23
2019-02-09T07:30:25.446Z,2.40
2019-02-09T07:32:52.624Z,3.27
2019-02-09T07:35:19.808Z,2.13
2019-02-09T07:37:47.193Z,2.80
2019-02-09T07:40:26.402Z,3.23
2019-02-09T07:42:54.143Z,2.30
2019-02-09T07:45:22.991Z,2.20
2019-02-09T07:47:50.168Z,2.47
2019-02-09T07:50:18.218Z,2.37
2019-02-09T07:52:45.485Z,2.13
2019-02-09T07:55:13.632Z,2.30
2019-02-09T07:57:40.942Z,2.57
2019-02-09T08:00:09.980Z,2.20
2019-02-09T08:02:37.159Z,2.50
2019-02-09T08:05:06.203Z,2.50
2019-02-09T08:07:33.388Z,2.23
2019-02-09T08:10:00.570Z,2.20
2019-02-09T08:12:27.873Z,2.33
2019-02-09T08:14:55.163Z,2.30
2019-02-09T08:17:22.364Z,2.33
2019-02-09T08:19:49.583Z,2.97
2019-02-09T08:22:16.739Z,2.57
2019-02-09T08:24:43.962Z,2.67
2019-02-09T08:27:11.127Z,2.60
2019-02-09T08:29:38.310Z,2.30
2019-02-09T08:32:12.578Z,2.33
2019-02-09T08:34:34.375Z,2.47
2019-02-09T08:37:01.545Z,2.53
2019-02-09T08:39:28.718Z,2.33
2019-02-09T08:41:55.886Z,2.30
2019-02-09T08:44:23.078Z,2.70
2019-02-09T08:46:50.325Z,2.17
2019-02-09T08:49:17.519Z,2.90
2019-02-09T08:51:44.726Z,2.40
2019-02-09T08:54:12.009Z,2.27
2019-02-09T08:56:39.185Z,2.83
2019-02-09T08:59:06.364Z,3.37
2019-02-09T09:01:33.531Z,2.50
2019-02-09T09:04:00.733Z,3.33
2019-02-09T09:06:27.908Z,3.33
2019-02-09T09:08:55.077Z,9.20
2019-02-09T09:11:22.267Z,4.73
2019-02-09T09:13:49.451Z,6.47
2019-02-09T09:16:16.646Z,6.43
2019-02-09T09:18:43.812Z,3.87
2019-02-09T09:21:11.016Z,3.17
2019-02-09T09:23:38.269Z,3.23
2019-02-09T09:26:05.524Z,1.80
2019-02-09T09:28:32.725Z,3.07
2019-02-09T09:30:59.979Z,2.53
2019-02-09T09:33:27.168Z,3.20
2019-02-09T09:35:54.346Z,2.60
2019-02-09T09:38:21.526Z,2.20
2019-02-09T09:40:48.731Z,2.00
2019-02-09T09:43:15.918Z,2.27
2019-02-09T09:45:43.766Z,1.90
2019-02-09T09:48:12.001Z,1.70
2019-02-09T09:50:39.255Z,2.10
2019-02-09T09:53:06.438Z,2.03
2019-02-09T09:55:33.603Z,3.17
2019-02-09T09:58:00.854Z,1.63
2019-02-09T10:00:28.134Z,2.00
2019-02-09T10:02:55.386Z,2.90
2019-02-09T10:05:22.578Z,1.63
2019-02-09T10:07:49.762Z,1.60
2019-02-09T10:10:18.323Z,1.90
2019-02-09T10:12:45.878Z,2.10
2019-02-09T10:15:23.550Z,1.50
2019-02-09T10:17:50.734Z,1.30
2019-02-09T10:20:19.571Z,1.53
2019-02-09T10:22:46.830Z,1.77
2019-02-09T10:25:14.130Z,1.60
2019-02-09T10:27:41.316Z,1.40
2019-02-09T10:30:10.135Z,1.30
2019-02-09T10:32:44.159Z,1.37
2019-02-09T10:35:07.558Z,1.37
2019-02-09T10:37:34.750Z,1.20
2019-02-09T10:40:01.981Z,1.27
2019-02-09T10:42:29.162Z,1.23
2019-02-09T10:44:56.340Z,1.57
2019-02-09T10:47:23.534Z,1.40
2019-02-09T10:49:52.740Z,1.20
2019-02-09T10:52:19.724Z,0.67
2019-02-09T10:54:46.914Z,1.30
2019-02-09T10:57:14.151Z,0.90
2019-02-09T10:59:41.333Z,0.97
2019-02-09T11:02:09.169Z,1.10
2019-02-09T11:04:36.371Z,0.93
2019-02-09T11:07:03.533Z,0.90
2019-02-09T11:09:30.691Z,1.20
2019-02-09T11:11:57.886Z,1.10
2019-02-09T11:14:25.162Z,0.90
2019-02-09T11:16:52.383Z,0.90
2019-02-09T11:19:19.577Z,1.00
2019-02-09T11:21:46.775Z,1.00
2019-02-09T11:24:14.016Z,0.90
2019-02-09T11:26:41.204Z,0.77
2019-02-09T11:29:08.387Z,0.90
2019-02-09T11:31:35.594Z,0.80
2019-02-09T11:34:02.765Z,1.03
2019-02-09T11:36:29.948Z,1.13
2019-02-09T11:38:57.144Z,1.00
2019-02-09T11:41:24.333Z,0.80
2019-02-09T11:43:51.515Z,0.90
2019-02-09T11:46:18.779Z,1.30
2019-02-09T11:48:45.954Z,1.53
2019-02-09T11:51:13.141Z,1.00
2019-02-09T11:53:40.359Z,0.60
2019-02-09T11:56:07.612Z,1.00
2019-02-09T11:58:34.846Z,0.87
2019-02-09T12:01:02.045Z,2.57
2019-02-09T12:03:29.314Z,2.83
2019-02-09T12:05:56.503Z,1.90
2019-02-09T12:08:23.676Z,0.97
2019-02-09T12:10:50.873Z,1.33
2019-02-09T12:13:18.054Z,0.90
2019-02-09T12:15:45.233Z,1.13
2019-02-09T12:18:13.109Z,0.70
2019-02-09T12:20:40.294Z,0.70
2019-02-09T12:23:07.552Z,1.13
2019-02-09T12:25:36.458Z,0.70
2019-02-09T12:28:04.394Z,1.13
2019-02-09T12:30:33.215Z,1.37
2019-02-09T12:33:00.446Z,0.70
2019-02-09T12:35:27.634Z,0.97
2019-02-09T12:37:54.831Z,0.70
2019-02-09T12:40:23.803Z,1.00
2019-02-09T12:42:50.971Z,0.80
2019-02-09T12:45:19.942Z,1.10
2019-02-09T12:47:47.122Z,1.00
2019-02-09T12:50:15.642Z,0.57
2019-02-09T12:52:42.818Z,0.87
2019-02-09T12:55:10.553Z,0.77
2019-02-09T12:57:37.753Z,0.70
2019-02-09T13:00:06.550Z,0.87
2019-02-09T13:02:33.734Z,0.83
2019-02-09T13:05:00.922Z,0.50
2019-02-09T13:07:28.102Z,0.73
2019-02-09T13:09:55.267Z,0.53
2019-02-09T13:12:22.442Z,0.60
2019-02-09T13:14:49.645Z,0.70
2019-02-09T13:17:16.808Z,0.70
2019-02-09T13:19:44.042Z,0.90
2019-02-09T13:22:11.211Z,0.67
2019-02-09T13:24:38.378Z,1.20
2019-02-09T13:27:05.567Z,0.77
2019-02-09T13:29:32.742Z,0.70
2019-02-09T13:31:59.957Z,0.60
2019-02-09T13:34:27.172Z,0.80
2019-02-09T13:36:54.364Z,1.30
2019-02-09T13:39:21.538Z,1.10
2019-02-09T13:41:48.712Z,0.90
2019-02-09T13:44:15.923Z,0.90
2019-02-09T13:46:43.173Z,0.70
2019-02-09T13:49:10.385Z,0.77
2019-02-09T13:51:37.546Z,0.80
2019-02-09T13:54:04.714Z,1.13
2019-02-09T13:56:31.894Z,1.20
2019-02-09T13:58:59.085Z,1.03
2019-02-09T14:01:26.299Z,0.87
2019-02-09T14:03:53.487Z,1.07
2019-02-09T14:06:20.671Z,0.70
2019-02-09T14:08:47.856Z,0.90
2019-02-09T14:11:15.019Z,1.33
2019-02-09T14:13:42.202Z,1.00
2019-02-09T14:16:10.835Z,1.03
2019-02-09T14:18:38.164Z,0.80
2019-02-09T14:21:05.316Z,1.00
2019-02-09T14:23:32.526Z,0.90
2019-02-09T14:25:59.769Z,1.20
2019-02-09T14:28:28.711Z,0.97
2019-02-09T14:30:55.898Z,1.00
2019-02-09T14:33:23.081Z,1.20
2019-02-09T14:35:50.346Z,1.03
2019-02-09T14:38:17.569Z,1.30
2019-02-09T14:40:44.746Z,1.00
2019-02-09T14:43:11.932Z,1.10
2019-02-09T14:45:40.389Z,1.03
2019-02-09T14:48:07.575Z,1.33
2019-02-09T14:50:34.767Z,1.50
2019-02-09T14:53:01.948Z,1.17
2019-02-09T14:55:32.662Z,1.23
2019-02-09T14:58:00.271Z,1.13
2019-02-09T15:00:37.369Z,0.87
2019-02-09T15:03:05.216Z,1.37
2019-02-09T15:05:32.462Z,1.00
2019-02-09T15:08:00.167Z,1.17
2019-02-09T15:10:27.342Z,0.90
2019-02-09T15:12:54.525Z,1.00
2019-02-09T15:15:26.219Z,0.93
2019-02-09T15:17:53.416Z,1.20
2019-02-09T15:20:22.222Z,1.40
2019-02-09T15:22:49.412Z,1.77
2019-02-09T15:25:16.591Z,1.50
2019-02-09T15:27:43.775Z,1.33
2019-02-09T15:30:12.578Z,1.20
2019-02-09T15:32:39.758Z,1.10
2019-02-09T15:35:08.559Z,1.80
2019-02-09T15:37:35.730Z,1.67
2019-02-09T15:40:03.396Z,1.47
2019-02-09T15:42:30.598Z,1.33
2019-02-09T15:44:57.823Z,1.53
2019-02-09T15:47:25.053Z,1.93
2019-02-09T15:49:52.227Z,1.27
2019-02-09T15:52:19.489Z,1.70
2019-02-09T15:54:46.669Z,1.70
2019-02-09T15:57:13.860Z,1.53
2019-02-09T15:59:41.034Z,1.27
2019-02-09T16:02:08.225Z,2.47
2019-02-09T16:04:35.423Z,1.47
2019-02-09T16:07:02.685Z,1.80
2019-02-09T16:09:29.865Z,2.23
2019-02-09T16:11:57.051Z,1.63
2019-02-09T16:14:24.245Z,1.60
2019-02-09T16:16:51.482Z,1.60
2019-02-09T16:19:18.681Z,1.70
2019-02-09T16:21:45.883Z,1.70
2019-02-09T16:24:13.041Z,1.40
2019-02-09T16:26:40.220Z,1.20
2019-02-09T16:29:07.415Z,1.17
2019-02-09T16:31:36.038Z,1.20
2019-02-09T16:34:03.500Z,0.80
2019-02-09T16:36:30.688Z,1.47
2019-02-09T16:38:57.970Z,1.00
2019-02-09T16:41:25.213Z,1.40
2019-02-09T16:43:52.447Z,1.07
2019-02-09T16:46:19.623Z,1.10
2019-02-09T16:48:46.812Z,2.50
2019-02-09T16:51:13.990Z,2.07
2019-02-09T16:53:41.167Z,1.70
2019-02-09T16:56:08.358Z,1.73
2019-02-09T16:58:35.618Z,2.27
2019-02-09T17:01:02.880Z,2.07
2019-02-09T17:03:30.046Z,1.83
2019-02-09T17:05:57.216Z,1.80
2019-02-09T17:08:25.587Z,1.47
2019-02-09T17:10:53.046Z,1.90
2019-02-09T17:13:20.231Z,1.97
2019-02-09T17:15:47.416Z,1.93
2019-02-09T17:18:14.668Z,2.93
2019-02-09T17:20:41.850Z,2.53
2019-02-09T17:23:09.035Z,1.57
2019-02-09T17:25:36.228Z,1.60
2019-02-09T17:28:03.406Z,1.73
2019-02-09T17:30:31.146Z,2.77
2019-02-09T17:32:58.349Z,1.73
2019-02-09T17:35:26.940Z,2.50
2019-02-09T17:37:54.301Z,1.90
2019-02-09T17:40:23.100Z,1.97
2019-02-09T17:42:53.441Z,1.60
2019-02-09T17:45:23.526Z,1.90
2019-02-09T17:47:50.688Z,1.97
2019-02-09T17:50:17.896Z,1.50
2019-02-09T17:52:45.156Z,1.63
2019-02-09T17:55:19.047Z,1.63
2019-02-09T17:57:46.215Z,2.00
2019-02-09T18:00:15.052Z,1.37
2019-02-09T18:02:42.218Z,1.83
2019-02-09T18:05:09.396Z,1.60
2019-02-09T18:07:36.582Z,1.40
2019-02-09T18:10:05.410Z,1.40
2019-02-09T18:12:32.595Z,1.63
2019-02-09T18:14:59.776Z,1.63
2019-02-09T18:17:26.956Z,2.33
2019-02-09T18:19:54.174Z,1.40
2019-02-09T18:22:21.344Z,2.17
2019-02-09T18:24:48.564Z,1.90
2019-02-09T18:27:15.834Z,1.60
2019-02-09T18:29:42.997Z,1.70
2019-02-09T18:32:10.198Z,1.70
2019-02-09T18:34:37.377Z,1.30
2019-02-09T18:37:04.561Z,1.80
2019-02-09T18:39:31.755Z,1.70
2019-02-09T18:41:58.918Z,1.30
2019-02-09T18:44:26.114Z,1.53
2019-02-09T18:46:53.296Z,2.60
2019-02-09T18:49:20.495Z,1.20
2019-02-09T18:51:47.675Z,2.00
2019-02-09T18:54:14.858Z,1.80
2019-02-09T18:56:42.046Z,1.47
2019-02-09T18:59:09.801Z,2.03
2019-02-09T19:01:36.982Z,1.57
2019-02-09T19:04:04.161Z,1.60
2019-02-09T19:06:31.363Z,1.67
2019-02-09T19:08:58.549Z,1.60
2019-02-09T19:11:25.746Z,1.53
2019-02-09T19:13:52.950Z,2.00
2019-02-09T19:16:20.124Z,2.40
2019-02-09T19:18:47.302Z,1.70
2019-02-09T19:21:14.517Z,1.60
2019-02-09T19:23:41.700Z,2.17
2019-02-09T19:26:09.010Z,2.10
2019-02-09T19:28:36.274Z,1.87
2019-02-09T19:31:03.453Z,2.27
2019-02-09T19:33:30.701Z,1.93
2019-02-09T19:35:57.898Z,1.70
2019-02-09T19:38:25.076Z,1.80
2019-02-09T19:40:52.253Z,2.20
2019-02-09T19:43:19.445Z,2.53
2019-02-09T19:45:46.622Z,2.57
2019-02-09T19:48:13.821Z,1.77
2019-02-09T19:50:40.985Z,2.20
2019-02-09T19:53:08.182Z,2.43
2019-02-09T19:55:35.721Z,1.60
2019-02-09T19:58:02.891Z,2.40
2019-02-09T20:00:31.712Z,1.90
2019-02-09T20:02:58.905Z,1.80
2019-02-09T20:05:26.080Z,3.70
2019-02-09T20:07:53.261Z,2.13
2019-02-09T20:10:21.815Z,1.80
2019-02-09T20:12:49.001Z,3.37
2019-02-09T20:15:16.182Z,2.20
2019-02-09T20:17:43.365Z,2.37
2019-02-09T20:20:12.402Z,1.90
2019-02-09T20:22:39.585Z,1.70
2019-02-09T20:25:08.409Z,1.90
2019-02-09T20:27:36.567Z,2.30
2019-02-09T20:30:05.397Z,3.00
2019-02-09T20:32:32.940Z,2.57
2019-02-09T20:35:00.236Z,1.73
2019-02-09T20:37:27.665Z,1.40
2019-02-09T20:39:54.883Z,1.77
2019-02-09T20:42:22.056Z,1.93
2019-02-09T20:44:49.233Z,1.83
2019-02-09T20:47:16.425Z,1.70
2019-02-09T20:49:43.692Z,1.50
2019-02-09T20:52:11.021Z,1.90
2019-02-09T20:54:38.272Z,1.60
2019-02-09T20:57:05.494Z,2.10
2019-02-09T20:59:32.690Z,2.07
2019-02-09T21:01:59.917Z,1.70
2019-02-09T21:04:27.146Z,2.93
2019-02-09T21:06:54.302Z,1.53
2019-02-09T21:09:21.554Z,1.67
2019-02-09T21:11:48.757Z,1.60
2019-02-09T21:14:16.022Z,2.27
2019-02-09T21:16:43.298Z,1.10
2019-02-09T21:19:10.535Z,1.50
2019-02-09T21:21:37.730Z,1.30
2019-02-09T21:24:07.395Z,2.37
2019-02-09T21:26:35.135Z,1.70
2019-02-09T21:29:02.298Z,1.70
2019-02-09T21:31:29.500Z,1.60
2019-02-09T21:33:56.756Z,1.73
2019-02-09T21:36:23.942Z,1.47
2019-02-09T21:38:51.182Z,1.40
2019-02-09T21:41:18.368Z,1.80
2019-02-09T21:43:45.623Z,2.40
2019-02-09T21:46:12.897Z,2.20
2019-02-09T21:48:40.066Z,1.90
2019-02-09T21:51:07.279Z,1.60
2019-02-09T21:53:34.434Z,2.30
2019-02-09T21:56:01.599Z,1.50
2019-02-09T21:58:28.798Z,1.80
2019-02-09T22:00:56.028Z,1.90
2019-02-09T22:03:23.265Z,2.30
2019-02-09T22:05:52.011Z,2.47
2019-02-09T22:08:20.085Z,2.10
2019-02-09T22:10:47.389Z,2.03
2019-02-09T22:13:14.581Z,2.10
2019-02-09T22:15:41.778Z,2.30
2019-02-09T22:18:08.973Z,2.13
2019-02-09T22:20:36.196Z,2.27
2019-02-09T22:23:03.538Z,1.60
2019-02-09T22:25:30.841Z,2.00
2019-02-09T22:27:58.077Z,2.50
2019-02-09T22:30:26.966Z,2.47
2019-02-09T22:32:54.270Z,2.37
2019-02-09T22:35:22.241Z,2.03
2019-02-09T22:37:49.437Z,2.03
2019-02-09T22:40:24.017Z,2.00
2019-02-09T22:42:51.211Z,2.00
2019-02-09T22:45:19.234Z,2.20
2019-02-09T22:47:46.416Z,2.27
2019-02-09T22:50:19.152Z,2.80
2019-02-09T22:52:46.622Z,2.10
2019-02-09T22:55:15.597Z,2.63
2019-02-09T22:57:42.837Z,2.07
2019-02-09T23:00:19.263Z,2.40
2019-02-09T23:02:46.436Z,2.03
2019-02-09T23:05:15.221Z,1.90
2019-02-09T23:07:43.583Z,2.07
2019-02-09T23:10:10.760Z,2.43
2019-02-09T23:12:37.926Z,1.87
2019-02-09T23:15:06.686Z,2.90
2019-02-09T23:17:33.867Z,1.63
2019-02-09T23:20:01.034Z,1.70
2019-02-09T23:22:28.225Z,2.10
2019-02-09T23:24:55.421Z,2.40
2019-02-09T23:27:22.661Z,2.23
2019-02-09T23:29:49.839Z,1.90
2019-02-09T23:32:17.016Z,2.20
2019-02-09T23:34:44.207Z,2.83
2019-02-09T23:37:11.404Z,3.97
2019-02-09T23:39:38.566Z,1.80
2019-02-09T23:42:05.754Z,2.40
2019-02-09T23:44:32.911Z,2.00
2019-02-09T23:47:00.113Z,2.43
2019-02-09T23:49:27.364Z,1.60
2019-02-09T23:51:54.549Z,1.70
2019-02-09T23:54:21.732Z,2.00
2019-02-09T23:56:48.966Z,2.33
2019-02-09T23:59:16.154Z,2.47
